createdAt,value
2022-09-17T10:35:29.088Z,15.22
2022-09-17T10:40:36.067Z,14.32
2022-09-17T10:45:46.756Z,13.85
2022-09-17T10:50:55.700Z,13.59
2022-09-17T10:56:07.847Z,13.41
2022-09-17T11:01:29.360Z,13.33
2022-09-17T11:07:25.248Z,13.29
2022-09-17T11:12:43.495Z,13.35
2022-09-17T11:18:06.409Z,13.40
2022-09-17T11:23:34.179Z,13.49
2022-09-17T11:28:55.009Z,13.53
2022-09-17T11:34:28.246Z,13.52
2022-09-17T11:39:43.224Z,13.58
2022-09-17T11:44:53.316Z,13.67
2022-09-17T11:50:05.402Z,13.75
2022-09-17T11:55:23.722Z,13.74
2022-09-17T12:00:31.833Z,13.79
2022-09-17T12:05:42.257Z,13.86
2022-09-17T12:10:55.100Z,13.89
2022-09-17T12:16:17.461Z,13.86
2022-09-17T12:21:31.335Z,13.94
2022-09-17T12:27:21.538Z,14.00
2022-09-17T12:32:58.993Z,14.04
2022-09-17T12:38:27.178Z,14.01
2022-09-17T12:44:04.476Z,13.97
2022-09-17T12:49:47.287Z,13.98
2022-09-17T12:55:25.259Z,13.98
2022-09-17T13:00:41.745Z,14.02
2022-09-17T13:06:28.386Z,14.07
2022-09-17T13:12:05.866Z,14.06
2022-09-17T13:17:25.196Z,14.03
2022-09-17T13:22:34.564Z,14.04
2022-09-17T13:27:42.126Z,14.05
2022-09-17T13:32:53.377Z,14.03
2022-09-17T13:38:02.432Z,14.01
2022-09-17T13:43:13.882Z,14.04
2022-09-17T13:48:26.548Z,14.07
2022-09-17T13:53:35.192Z,14.10
2022-09-17T13:58:43.623Z,14.06
2022-09-17T14:03:57.372Z,14.02
2022-09-17T14:09:38.513Z,13.99
2022-09-17T14:14:53.674Z,13.95
2022-09-17T14:20:02.417Z,13.94
2022-09-17T14:25:19.005Z,13.85
2022-09-17T14:30:27.911Z,13.88
2022-09-17T14:35:41.376Z,13.89
2022-09-17T14:40:49.721Z,13.93
2022-09-17T14:45:56.468Z,13.95
2022-09-17T14:51:29.391Z,13.96
2022-09-17T14:56:49.468Z,14.00
2022-09-17T15:01:56.253Z,14.00
2022-09-17T15:07:15.172Z,14.00
2022-09-17T15:12:23.639Z,13.99
2022-09-17T15:17:30.871Z,13.96
2022-09-17T15:22:42.687Z,13.95
2022-09-17T15:27:51.465Z,13.96
2022-09-17T15:33:00.349Z,13.97
2022-09-17T15:38:24.248Z,13.96
2022-09-17T15:43:33.371Z,13.97
2022-09-17T15:48:41.814Z,13.97
2022-09-17T15:53:57.298Z,13.96
2022-09-17T15:59:05.914Z,13.93
2022-09-17T16:04:31.367Z,13.92
2022-09-17T16:09:59.678Z,13.89
2022-09-17T16:15:08.217Z,13.83
2022-09-17T16:20:22.290Z,13.77
2022-09-17T16:25:31.006Z,13.68
2022-09-17T16:30:37.397Z,13.57
2022-09-17T16:35:45.347Z,13.41
2022-09-17T16:40:53.285Z,13.35
2022-09-17T16:46:03.179Z,13.29
2022-09-17T16:51:10.435Z,13.22
2022-09-17T16:56:18.686Z,13.17
2022-09-17T17:01:25.440Z,12.87
2022-09-17T17:06:32.666Z,12.72
2022-09-17T17:11:41.113Z,12.72
2022-09-17T17:16:47.775Z,12.67
2022-09-17T17:21:54.780Z,12.62
2022-09-17T17:27:04.053Z,12.22
2022-09-17T17:32:10.658Z,12.23
2022-09-17T17:37:18.860Z,12.09
2022-09-17T17:42:36.049Z,12.15
2022-09-17T17:47:44.607Z,12.14
2022-09-17T17:52:50.924Z,12.06
2022-09-17T17:58:01.675Z,11.93
2022-09-17T18:03:08.195Z,11.92
2022-09-17T18:08:17.897Z,12.03
2022-09-17T18:13:26.364Z,11.87
2022-09-17T18:18:43.610Z,11.73
2022-09-17T18:23:52.064Z,11.79
2022-09-17T18:29:03.237Z,11.96
2022-09-17T18:34:14.874Z,12.03
2022-09-17T18:44:51.039Z,11.93
2022-09-17T18:49:57.190Z,11.98
2022-09-17T18:55:04.042Z,11.95
2022-09-17T19:00:13.423Z,11.91
2022-09-17T19:05:20.420Z,11.68
2022-09-17T19:10:27.921Z,11.74
2022-09-17T19:15:36.267Z,11.68
2022-09-17T19:20:44.125Z,11.60
2022-09-17T19:25:51.151Z,11.52
2022-09-17T19:30:59.097Z,11.54
2022-09-17T19:36:07.642Z,11.44
2022-09-17T19:41:16.508Z,11.46
2022-09-17T19:46:28.271Z,11.47
2022-09-17T19:51:36.005Z,11.38
2022-09-17T19:56:45.022Z,11.33
2022-09-17T20:01:53.272Z,11.28
2022-09-17T20:07:02.094Z,11.19
2022-09-17T20:12:14.136Z,11.11
2022-09-17T20:17:25.873Z,11.08
2022-09-17T20:22:32.506Z,11.13
2022-09-17T20:27:39.093Z,11.17
2022-09-17T20:32:46.616Z,11.17
2022-09-17T20:38:57.492Z,11.10
2022-09-17T20:43:20.779Z,11.06
2022-09-17T20:48:29.453Z,11.11
2022-09-17T20:53:39.034Z,11.10
2022-09-17T20:58:48.829Z,11.11
2022-09-17T21:03:56.532Z,11.13
2022-09-17T21:09:03.840Z,11.02
2022-09-17T21:14:10.943Z,10.90
2022-09-17T21:19:20.173Z,10.99
2022-09-17T21:24:26.597Z,10.94
2022-09-17T21:29:32.661Z,10.88
2022-09-17T21:34:41.226Z,10.90
2022-09-17T21:39:50.582Z,10.81
2022-09-17T21:44:59.199Z,10.78
2022-09-17T21:50:09.467Z,10.72
2022-09-17T21:55:19.280Z,10.69
2022-09-17T22:00:28.144Z,10.53
2022-09-17T22:05:36.605Z,10.56
2022-09-17T22:10:45.663Z,10.40
2022-09-17T22:15:58.940Z,10.34
2022-09-17T22:21:16.497Z,10.37
2022-09-17T22:26:25.512Z,10.36
2022-09-17T22:31:31.726Z,10.41
2022-09-17T22:36:42.433Z,10.54
2022-09-17T22:41:50.412Z,10.35
2022-09-17T22:46:57.126Z,10.31
2022-09-17T22:52:05.223Z,10.30
2022-09-17T22:57:11.608Z,10.46
2022-09-17T23:02:17.844Z,10.51
2022-09-17T23:07:25.362Z,10.31
2022-09-17T23:12:31.561Z,10.40
2022-09-17T23:17:37.629Z,10.39
2022-09-17T23:22:45.155Z,10.25
2022-09-17T23:27:51.227Z,9.99
2022-09-17T23:32:58.990Z,9.98
2022-09-17T23:38:06.826Z,10.04
2022-09-17T23:43:12.653Z,10.00
2022-09-17T23:48:18.558Z,9.98
2022-09-17T23:53:26.381Z,9.91
2022-09-17T23:58:33.234Z,10.04
